Korce, Albania
Current Conditions -  °F | °C
As of 7:50 PM on Wednesday 26 Nov 2014 (Local Time) from LGKZ Reporting Station
Light Rain Light Rain  
Wind Chill: 36°   Ceiling: 2000
Heat Index: 36°   Visibility: 4mi
Dew Point: 36°   Wind: 0mph
Humidity: 100%   Direction: NA
Pressure: 30.12"   Gusts: NA
Location:  40.62°N, 20.78°E
Report Text: LGKZ 261750Z 00000KT 6000 -RA BKN020 OVC070 02/02 Q1020
Loading
Personal Weather Stations






























Interactive Weather Map New forecast layout! Learn more

10-Day Weather Forecast

Advertisements
Track Severe Weather on mobile